createdAt,value
2023-05-19T00:00:09.947Z,102006.22
2023-05-19T00:02:39.742Z,102002.94
2023-05-19T00:05:07.712Z,102000.35
2023-05-19T00:07:38.390Z,102002.55
2023-05-19T00:10:06.448Z,101998.98
2023-05-19T00:12:33.878Z,101997.98
2023-05-19T00:15:01.485Z,102000.30
2023-05-19T00:17:28.632Z,102006.58
2023-05-19T00:19:56.090Z,102006.46
2023-05-19T00:22:23.179Z,102003.73
2023-05-19T00:24:50.127Z,102005.94
2023-05-19T00:27:17.380Z,102003.13
2023-05-19T00:29:44.254Z,102004.82
2023-05-19T00:32:11.628Z,101999.22
2023-05-19T00:34:38.481Z,102000.80
2023-05-19T00:37:05.771Z,101997.02
2023-05-19T00:39:32.850Z,101997.77
2023-05-19T00:42:00.092Z,101994.38
2023-05-19T00:44:27.426Z,101993.95
2023-05-19T00:46:55.063Z,101991.80
2023-05-19T00:49:22.694Z,101988.86
2023-05-19T00:51:50.759Z,101990.45
2023-05-19T00:54:18.789Z,101990.46
2023-05-19T00:56:45.628Z,101990.27
2023-05-19T00:59:13.237Z,101986.48
2023-05-19T01:01:40.733Z,101985.02
2023-05-19T01:04:10.066Z,101983.98
2023-05-19T01:06:38.733Z,101982.81
2023-05-19T01:09:05.948Z,101979.64
2023-05-19T01:11:32.918Z,101980.90
2023-05-19T01:13:59.812Z,101981.92
2023-05-19T01:16:40.338Z,101978.98
2023-05-19T01:19:25.510Z,101977.95
2023-05-19T01:22:27.007Z,101978.19
2023-05-19T01:25:02.643Z,101984.77
2023-05-19T01:27:48.211Z,101982.14
2023-05-19T01:30:27.203Z,101978.30
2023-05-19T01:32:58.482Z,101977.58
2023-05-19T01:35:26.275Z,101977.66
2023-05-19T01:37:57.818Z,101977.79
2023-05-19T01:40:26.272Z,101977.78
2023-05-19T01:42:57.319Z,101975.44
2023-05-19T01:45:25.374Z,101975.65
2023-05-19T01:47:58.536Z,101974.03
2023-05-19T01:50:26.101Z,101976.84
2023-05-19T01:52:53.262Z,101978.50
2023-05-19T01:55:21.360Z,101982.73
2023-05-19T01:58:20.162Z,101985.91
2023-05-19T02:01:07.031Z,101987.21
2023-05-19T02:03:48.222Z,101986.56
2023-05-19T02:06:33.735Z,101986.33
2023-05-19T02:09:23.461Z,101985.86
2023-05-19T02:12:03.420Z,101990.21
2023-05-19T02:14:35.508Z,101986.50
2023-05-19T02:17:05.074Z,101988.05
2023-05-19T02:19:35.686Z,101987.86
2023-05-19T02:22:02.667Z,101989.23
2023-05-19T02:24:29.972Z,101987.88
2023-05-19T02:26:56.766Z,101987.78
2023-05-19T02:29:24.182Z,101988.85
2023-05-19T02:31:51.423Z,101987.84
2023-05-19T02:34:18.273Z,101987.53
2023-05-19T02:36:45.386Z,101986.17
2023-05-19T02:39:13.010Z,101985.00
2023-05-19T02:41:40.332Z,101981.92
2023-05-19T02:44:07.612Z,101978.03
2023-05-19T02:46:34.579Z,101980.18
2023-05-19T02:49:01.664Z,101976.95
2023-05-19T02:51:28.607Z,101977.80
2023-05-19T02:53:55.463Z,101976.55
2023-05-19T02:56:22.279Z,101972.19
2023-05-19T02:58:49.656Z,101973.32
2023-05-19T03:01:16.893Z,101970.66
2023-05-19T03:03:44.117Z,101971.66
2023-05-19T03:06:11.298Z,101969.40
2023-05-19T03:08:40.124Z,101966.77
2023-05-19T03:11:09.193Z,101968.57
2023-05-19T03:13:36.072Z,101965.94
2023-05-19T03:16:03.429Z,101966.45
2023-05-19T03:18:31.044Z,101967.96
2023-05-19T03:20:58.118Z,101967.38
2023-05-19T03:23:25.100Z,101965.95
2023-05-19T03:25:54.141Z,101962.84
2023-05-19T03:28:21.457Z,101964.27
2023-05-19T03:30:50.101Z,101960.78
2023-05-19T03:33:17.302Z,101963.33
2023-05-19T03:35:44.550Z,101966.38
2023-05-19T03:38:11.169Z,101966.98
2023-05-19T03:40:38.604Z,101968.45
2023-05-19T03:43:05.608Z,101963.07
2023-05-19T03:45:32.655Z,101963.73
2023-05-19T03:47:59.648Z,101966.98
2023-05-19T03:50:29.206Z,101968.14
2023-05-19T03:52:56.374Z,101968.56
2023-05-19T03:55:23.137Z,101967.94
2023-05-19T03:57:50.148Z,101964.83
2023-05-19T04:00:18.147Z,101962.69
2023-05-19T04:02:45.028Z,101963.45
2023-05-19T04:05:12.083Z,101965.28
2023-05-19T04:07:39.062Z,101965.81
2023-05-19T04:10:06.341Z,101966.45
2023-05-19T04:12:33.228Z,101967.23
2023-05-19T04:15:00.660Z,101964.42
2023-05-19T04:17:27.995Z,101962.08
2023-05-19T04:19:56.288Z,101962.33
2023-05-19T04:22:23.414Z,101965.10
2023-05-19T04:24:51.764Z,101970.81
2023-05-19T04:27:18.800Z,101966.79
2023-05-19T04:29:48.230Z,101972.92
2023-05-19T04:32:17.440Z,101971.33
2023-05-19T04:34:47.271Z,101977.39
2023-05-19T04:37:14.172Z,101977.53
2023-05-19T04:39:45.326Z,101974.98
2023-05-19T04:42:15.208Z,101973.34
2023-05-19T04:44:42.005Z,101974.95
2023-05-19T04:47:09.200Z,101974.57
2023-05-19T04:49:39.408Z,101970.35
2023-05-19T04:52:10.886Z,101975.29
2023-05-19T04:54:39.847Z,101975.61
2023-05-19T04:57:07.552Z,101975.77
2023-05-19T04:59:34.910Z,101975.02
2023-05-19T05:02:01.727Z,101978.96
2023-05-19T05:04:28.994Z,101979.34
2023-05-19T05:06:56.472Z,101976.45
2023-05-19T05:09:23.393Z,101975.77
2023-05-19T05:11:51.638Z,101976.40
2023-05-19T05:14:18.904Z,101976.41
2023-05-19T05:16:46.440Z,101973.58
2023-05-19T05:19:14.062Z,101974.17
2023-05-19T05:21:41.796Z,101975.25
2023-05-19T05:24:09.534Z,101974.17
2023-05-19T05:26:36.678Z,101973.04
2023-05-19T05:29:04.045Z,101970.81
2023-05-19T05:31:31.538Z,101969.31
2023-05-19T05:33:58.815Z,101970.41
2023-05-19T05:36:25.756Z,101966.33
2023-05-19T05:38:52.611Z,101966.51
2023-05-19T05:41:19.715Z,101962.30
2023-05-19T05:43:46.853Z,101958.15
2023-05-19T05:46:13.912Z,101955.70
2023-05-19T05:48:42.590Z,101956.30
2023-05-19T05:51:10.011Z,101957.70
2023-05-19T05:53:44.861Z,101956.80
2023-05-19T05:56:12.811Z,101960.30
2023-05-19T05:58:40.720Z,101960.34
2023-05-19T06:01:11.376Z,101964.05
2023-05-19T06:03:42.737Z,101966.84
2023-05-19T06:06:11.053Z,101971.80
2023-05-19T06:08:38.190Z,101973.11
2023-05-19T06:11:10.924Z,101975.55
2023-05-19T06:13:38.555Z,101977.11
2023-05-19T06:16:06.348Z,101982.00
2023-05-19T06:18:33.344Z,101983.66
2023-05-19T06:21:01.683Z,101981.65
2023-05-19T06:23:29.185Z,101986.52
2023-05-19T06:25:56.635Z,101983.94
2023-05-19T06:28:23.302Z,101983.33
2023-05-19T06:30:50.199Z,101973.41
2023-05-19T06:33:17.194Z,101977.43
2023-05-19T06:35:43.904Z,101973.26
2023-05-19T06:38:10.742Z,101975.91
2023-05-19T06:40:37.616Z,101975.31
2023-05-19T06:43:04.899Z,101973.73
2023-05-19T06:45:31.862Z,101972.27
2023-05-19T06:47:58.512Z,101973.08
2023-05-19T06:50:25.890Z,101973.71
2023-05-19T06:52:53.176Z,101973.80
2023-05-19T06:55:20.442Z,101975.30
2023-05-19T06:57:47.394Z,101977.48
2023-05-19T07:00:17.549Z,101972.36
2023-05-19T07:02:45.905Z,101975.59
2023-05-19T07:05:13.022Z,101972.21
2023-05-19T07:07:40.031Z,101973.71
2023-05-19T07:10:07.864Z,101974.34
2023-05-19T07:12:34.727Z,101978.65
2023-05-19T07:15:01.595Z,101974.54
2023-05-19T07:17:28.566Z,101977.70
2023-05-19T07:19:55.582Z,101974.54
2023-05-19T07:22:24.219Z,101973.23
2023-05-19T07:24:51.406Z,101972.41
2023-05-19T07:27:18.423Z,101972.41
2023-05-19T07:29:45.250Z,101973.02
2023-05-19T07:32:12.018Z,101967.98
2023-05-19T07:34:39.097Z,101968.30
2023-05-19T07:37:05.940Z,101962.71
2023-05-19T07:39:34.128Z,101962.36
2023-05-19T07:42:09.113Z,101960.99
2023-05-19T07:44:36.145Z,101958.86
2023-05-19T07:47:03.046Z,101957.47
2023-05-19T07:49:29.929Z,101958.30
2023-05-19T07:51:57.150Z,101959.80
2023-05-19T07:54:24.215Z,101958.48
2023-05-19T07:56:51.181Z,101959.66
2023-05-19T07:59:18.639Z,101958.34
2023-05-19T08:01:45.860Z,101956.65
2023-05-19T08:04:13.504Z,101956.25
2023-05-19T08:06:42.797Z,101956.66
2023-05-19T08:09:09.621Z,101954.16
2023-05-19T08:11:37.102Z,101954.97
2023-05-19T08:14:03.827Z,101953.11
2023-05-19T08:16:30.820Z,101954.41
2023-05-19T08:18:57.818Z,101948.50
2023-05-19T08:21:24.963Z,101946.85
2023-05-19T08:23:51.925Z,101947.59
2023-05-19T08:26:19.083Z,101941.91
2023-05-19T08:28:45.924Z,101939.04
2023-05-19T08:31:12.817Z,101939.74
2023-05-19T08:33:39.761Z,101942.27
2023-05-19T08:36:06.634Z,101939.35
2023-05-19T08:38:33.775Z,101942.09
2023-05-19T08:41:00.480Z,101937.77
2023-05-19T08:43:27.438Z,101938.92
2023-05-19T08:45:55.478Z,101930.86
2023-05-19T08:48:22.778Z,101930.52
2023-05-19T08:51:07.199Z,101928.78
2023-05-19T08:53:40.234Z,101925.35
2023-05-19T08:56:21.812Z,101923.38
2023-05-19T08:58:50.336Z,101922.23
2023-05-19T09:01:18.320Z,101916.33
2023-05-19T09:03:46.388Z,101907.66
2023-05-19T09:06:13.383Z,101908.48
2023-05-19T09:08:41.674Z,101908.79
2023-05-19T09:11:09.764Z,101909.73
2023-05-19T09:13:36.638Z,101910.15
2023-05-19T09:16:03.746Z,101907.96
2023-05-19T09:18:31.192Z,101905.58
2023-05-19T09:21:00.246Z,101906.92
2023-05-19T09:23:35.140Z,101909.48
2023-05-19T09:26:08.963Z,101903.17
2023-05-19T09:28:37.723Z,101904.70
2023-05-19T09:31:08.541Z,101902.52
2023-05-19T09:33:40.353Z,101902.73
2023-05-19T09:36:08.863Z,101894.15
2023-05-19T09:38:37.020Z,101892.44
2023-05-19T09:41:04.683Z,101894.16
2023-05-19T09:43:33.782Z,101893.65
2023-05-19T09:46:10.107Z,101884.52
2023-05-19T09:48:38.962Z,101880.30
2023-05-19T09:51:08.235Z,101879.27
2023-05-19T09:53:34.973Z,101878.95
2023-05-19T09:56:04.072Z,101874.73
2023-05-19T09:58:35.358Z,101870.02
2023-05-19T10:01:03.751Z,101866.52
2023-05-19T10:03:33.156Z,101856.93
2023-05-19T10:06:01.646Z,101861.40
2023-05-19T10:08:30.626Z,101859.99
2023-05-19T10:10:57.958Z,101861.04
2023-05-19T10:13:27.400Z,101857.85
2023-05-19T10:15:59.010Z,101855.33
2023-05-19T10:18:28.035Z,101853.08
2023-05-19T10:20:57.893Z,101843.16
2023-05-19T10:23:25.564Z,101840.91
2023-05-19T10:25:56.423Z,101833.59
2023-05-19T10:28:28.192Z,101832.59
2023-05-19T10:30:59.455Z,101830.36
2023-05-19T10:33:53.448Z,101829.52
2023-05-19T10:36:45.717Z,101829.11
2023-05-19T10:39:25.248Z,101830.52
2023-05-19T10:42:19.942Z,101828.55
2023-05-19T10:44:49.421Z,101825.00
2023-05-19T10:47:23.559Z,101820.80
2023-05-19T10:49:53.276Z,101810.88
2023-05-19T10:52:21.968Z,101810.54
2023-05-19T10:54:48.975Z,101806.39
2023-05-19T10:57:17.207Z,101809.46
2023-05-19T10:59:47.323Z,101808.93
2023-05-19T11:02:43.277Z,101807.45
2023-05-19T11:05:14.333Z,101804.93
2023-05-19T11:07:45.190Z,101801.73
2023-05-19T11:10:12.310Z,101800.60
2023-05-19T11:12:45.470Z,101795.77
2023-05-19T11:15:14.768Z,101795.66
2023-05-19T11:17:43.153Z,101795.13
2023-05-19T11:20:21.859Z,101807.88
2023-05-19T11:23:01.938Z,101809.77
2023-05-19T11:25:46.924Z,101803.66
2023-05-19T11:28:29.374Z,101801.11
2023-05-19T11:30:58.891Z,101799.55
2023-05-19T11:33:28.796Z,101788.36
2023-05-19T11:35:59.231Z,101791.27
2023-05-19T11:38:28.449Z,101788.41
2023-05-19T11:40:56.475Z,101786.98
2023-05-19T11:43:24.564Z,101789.99
2023-05-19T11:45:51.771Z,101794.05
2023-05-19T11:48:21.733Z,101792.23
2023-05-19T11:50:48.756Z,101792.02
2023-05-19T11:53:19.853Z,101788.40
2023-05-19T11:55:47.842Z,101785.81
2023-05-19T11:58:15.888Z,101778.48
2023-05-19T12:00:45.932Z,101775.69
2023-05-19T12:03:13.267Z,101775.86
2023-05-19T12:05:45.693Z,101772.30
2023-05-19T12:08:13.281Z,101771.40
2023-05-19T12:10:40.864Z,101773.98
2023-05-19T12:13:10.907Z,101775.63
2023-05-19T12:15:38.681Z,101777.19
2023-05-19T12:18:06.737Z,101773.96
2023-05-19T12:20:36.183Z,101773.80
2023-05-19T12:23:04.090Z,101770.05
2023-05-19T12:25:31.935Z,101764.08
2023-05-19T12:28:05.498Z,101762.33
2023-05-19T12:30:34.707Z,101760.30
2023-05-19T12:33:02.623Z,101758.55
2023-05-19T12:35:33.912Z,101756.48
2023-05-19T12:38:05.383Z,101748.16
2023-05-19T12:40:35.109Z,101748.88
2023-05-19T12:43:02.583Z,101745.92
2023-05-19T12:45:37.249Z,101748.02
2023-05-19T12:48:12.364Z,101746.45
2023-05-19T12:50:39.247Z,101742.10
2023-05-19T12:53:10.047Z,101738.42
2023-05-19T12:55:44.926Z,101739.66
2023-05-19T12:58:12.651Z,101735.31
2023-05-19T13:00:45.242Z,101738.64
2023-05-19T13:03:20.258Z,101737.83
2023-05-19T13:05:50.480Z,101740.79
2023-05-19T13:08:22.021Z,101738.22
2023-05-19T13:10:51.675Z,101740.39
2023-05-19T13:13:18.583Z,101740.21
2023-05-19T13:15:49.411Z,101736.63
2023-05-19T13:18:16.857Z,101736.86
2023-05-19T13:20:45.106Z,101739.19
2023-05-19T13:23:12.619Z,101739.16
2023-05-19T13:25:40.247Z,101731.78
2023-05-19T13:28:06.940Z,101729.70
2023-05-19T13:30:39.234Z,101729.30
2023-05-19T13:33:06.578Z,101726.38
2023-05-19T13:35:42.566Z,101719.57
2023-05-19T13:38:10.567Z,101719.55
2023-05-19T13:40:38.028Z,101721.92
2023-05-19T13:43:05.076Z,101730.23
2023-05-19T13:45:31.908Z,101727.95
2023-05-19T13:47:58.536Z,101732.21
2023-05-19T13:50:25.671Z,101734.14
2023-05-19T13:52:52.480Z,101732.63
2023-05-19T13:55:19.349Z,101729.81
2023-05-19T13:57:46.440Z,101725.27
2023-05-19T14:00:13.913Z,101726.59
2023-05-19T14:02:40.988Z,101723.36
2023-05-19T14:05:08.056Z,101723.88
2023-05-19T14:07:35.224Z,101724.42
2023-05-19T14:10:02.824Z,101719.80
2023-05-19T14:12:38.149Z,101722.52
2023-05-19T14:15:11.580Z,101724.02
2023-05-19T14:17:38.854Z,101719.20
2023-05-19T14:20:07.373Z,101716.76
2023-05-19T14:22:34.195Z,101715.10
2023-05-19T14:25:01.933Z,101712.80
2023-05-19T14:27:28.405Z,101709.88
2023-05-19T14:29:55.057Z,101701.42
2023-05-19T14:32:22.161Z,101697.91
2023-05-19T14:34:52.876Z,101692.11
2023-05-19T14:37:20.498Z,101697.42
2023-05-19T14:39:47.393Z,101702.90
2023-05-19T14:42:14.049Z,101698.22
2023-05-19T14:44:41.031Z,101697.09
2023-05-19T14:47:07.740Z,101693.19
2023-05-19T14:49:34.559Z,101697.04
2023-05-19T14:52:01.445Z,101692.15
2023-05-19T14:54:28.187Z,101692.50
2023-05-19T14:56:54.884Z,101691.15
2023-05-19T14:59:21.753Z,101694.37
2023-05-19T15:01:48.465Z,101700.33
2023-05-19T15:04:15.188Z,101700.09
2023-05-19T15:06:41.950Z,101705.17
2023-05-19T15:09:09.338Z,101703.15
2023-05-19T15:11:36.057Z,101705.67
2023-05-19T15:14:02.701Z,101702.33
2023-05-19T15:16:30.203Z,101693.92
2023-05-19T15:18:56.872Z,101692.58
2023-05-19T15:21:23.544Z,101694.24
2023-05-19T15:23:50.534Z,101696.90
2023-05-19T15:26:17.430Z,101695.13
2023-05-19T15:28:44.064Z,101697.32
2023-05-19T15:31:10.789Z,101702.58
2023-05-19T15:33:37.448Z,101700.34
2023-05-19T15:36:04.421Z,101695.34
2023-05-19T15:38:35.441Z,101693.65
2023-05-19T15:41:06.770Z,101696.52
2023-05-19T15:43:33.478Z,101697.96
2023-05-19T15:46:00.222Z,101695.32
2023-05-19T15:48:28.838Z,101691.36
2023-05-19T15:50:58.319Z,101689.66
2023-05-19T15:53:25.793Z,101687.05
2023-05-19T15:55:52.651Z,101688.98
2023-05-19T15:58:19.349Z,101686.80
2023-05-19T16:00:45.980Z,101691.20
2023-05-19T16:03:13.011Z,101691.36
2023-05-19T16:05:39.684Z,101689.04
2023-05-19T16:08:08.485Z,101685.72
2023-05-19T16:10:35.749Z,101685.66
2023-05-19T16:13:02.565Z,101686.18
2023-05-19T16:15:29.508Z,101680.52
2023-05-19T16:17:56.791Z,101678.09
2023-05-19T16:20:27.786Z,101680.92
2023-05-19T16:22:55.448Z,101676.27
2023-05-19T16:25:23.098Z,101673.90
2023-05-19T16:27:50.612Z,101670.71
2023-05-19T16:30:17.383Z,101673.80
2023-05-19T16:32:44.529Z,101668.89
2023-05-19T16:35:11.180Z,101667.33
2023-05-19T16:37:37.948Z,101666.16
2023-05-19T16:40:05.555Z,101668.95
2023-05-19T16:42:32.367Z,101664.73
2023-05-19T16:44:59.249Z,101665.15
2023-05-19T16:47:26.433Z,101665.48
2023-05-19T16:49:53.206Z,101668.85
2023-05-19T16:52:20.104Z,101664.86
2023-05-19T16:54:46.956Z,101666.47
2023-05-19T16:57:17.028Z,101667.77
2023-05-19T16:59:43.866Z,101665.74
2023-05-19T17:02:10.611Z,101668.75
2023-05-19T17:04:37.623Z,101669.16
2023-05-19T17:07:04.592Z,101669.61
2023-05-19T17:09:31.525Z,101671.17
2023-05-19T17:11:58.288Z,101672.11
2023-05-19T17:14:25.093Z,101672.05
2023-05-19T17:16:52.548Z,101668.66
2023-05-19T17:19:19.519Z,101669.95
2023-05-19T17:21:46.360Z,101664.71
2023-05-19T17:24:12.933Z,101661.73
2023-05-19T17:26:39.749Z,101666.61
2023-05-19T17:29:06.522Z,101671.02
2023-05-19T17:31:33.491Z,101669.98
2023-05-19T17:34:00.454Z,101671.82
2023-05-19T17:36:27.184Z,101674.41
2023-05-19T17:38:53.856Z,101673.83
2023-05-19T17:41:20.974Z,101670.96
2023-05-19T17:43:47.939Z,101673.70
2023-05-19T17:46:14.825Z,101672.19
2023-05-19T17:48:41.742Z,101671.96
2023-05-19T17:51:08.880Z,101671.17
2023-05-19T17:53:36.487Z,101671.55
2023-05-19T17:56:05.875Z,101668.91
2023-05-19T17:58:32.848Z,101669.20
2023-05-19T18:01:00.222Z,101667.66
2023-05-19T18:03:27.383Z,101670.77
2023-05-19T18:05:54.604Z,101672.77
2023-05-19T18:08:21.780Z,101672.20
2023-05-19T18:10:51.568Z,101669.80
2023-05-19T18:13:18.683Z,101673.36
2023-05-19T18:15:45.311Z,101671.17
2023-05-19T18:18:12.085Z,101670.27
2023-05-19T18:20:41.019Z,101668.66
2023-05-19T18:23:07.985Z,101665.48
2023-05-19T18:25:35.693Z,101657.55
2023-05-19T18:28:02.583Z,101659.63
2023-05-19T18:30:29.344Z,101659.63
2023-05-19T18:32:56.179Z,101658.52
2023-05-19T18:35:23.123Z,101667.04
2023-05-19T18:37:50.612Z,101672.09
2023-05-19T18:40:17.268Z,101675.36
2023-05-19T18:42:44.232Z,101673.20
2023-05-19T18:45:11.489Z,101676.19
2023-05-19T18:47:38.440Z,101678.41
2023-05-19T18:50:06.937Z,101686.52
2023-05-19T18:52:33.596Z,101691.02
2023-05-19T18:55:01.133Z,101688.02
2023-05-19T18:57:28.001Z,101690.77
2023-05-19T18:59:54.611Z,101693.43
2023-05-19T19:02:21.451Z,101693.53
2023-05-19T19:04:48.370Z,101692.88
2023-05-19T19:07:15.146Z,101691.55
2023-05-19T19:09:43.707Z,101691.56
2023-05-19T19:12:10.825Z,101694.48
2023-05-19T19:14:37.618Z,101694.92
2023-05-19T19:17:04.712Z,101696.48
2023-05-19T19:19:31.552Z,101693.48
2023-05-19T19:21:58.460Z,101698.45
2023-05-19T19:24:26.427Z,101699.11
2023-05-19T19:26:53.069Z,101695.80
2023-05-19T19:29:21.900Z,101699.50
2023-05-19T19:31:48.706Z,101698.74
2023-05-19T19:34:15.662Z,101706.89
2023-05-19T19:36:42.436Z,101706.77
2023-05-19T19:39:09.427Z,101710.16
2023-05-19T19:41:36.620Z,101708.92
2023-05-19T19:44:03.555Z,101714.91
2023-05-19T19:46:30.311Z,101713.06
2023-05-19T19:49:00.775Z,101718.94
2023-05-19T19:51:28.189Z,101721.99
2023-05-19T19:53:54.851Z,101723.03
2023-05-19T19:56:24.704Z,101726.06
2023-05-19T19:58:51.420Z,101723.61
2023-05-19T20:01:20.402Z,101726.23
2023-05-19T20:03:48.092Z,101730.52
2023-05-19T20:06:14.761Z,101727.51
2023-05-19T20:08:41.602Z,101733.98
2023-05-19T20:11:08.174Z,101736.27
2023-05-19T20:13:35.041Z,101736.90
2023-05-19T20:16:02.090Z,101736.69
2023-05-19T20:18:29.930Z,101738.23
2023-05-19T20:20:56.936Z,101739.41
2023-05-19T20:23:23.835Z,101743.39
2023-05-19T20:26:09.395Z,101742.55
2023-05-19T20:28:37.592Z,101743.70
2023-05-19T20:31:05.164Z,101744.75
2023-05-19T20:33:32.338Z,101746.38
2023-05-19T20:35:59.400Z,101749.01
2023-05-19T20:38:26.205Z,101747.86
2023-05-19T20:40:54.199Z,101750.52
2023-05-19T20:43:21.216Z,101749.80
2023-05-19T20:45:47.855Z,101751.86
2023-05-19T20:48:16.014Z,101751.34
2023-05-19T20:50:43.307Z,101755.77
2023-05-19T20:53:09.999Z,101760.38
2023-05-19T20:55:38.175Z,101756.92
2023-05-19T20:58:05.094Z,101759.43
2023-05-19T21:00:32.106Z,101759.36
2023-05-19T21:02:59.191Z,101758.14
2023-05-19T21:05:26.431Z,101760.99
2023-05-19T21:07:53.200Z,101761.58
2023-05-19T21:10:19.990Z,101763.09
2023-05-19T21:12:46.940Z,101761.60
2023-05-19T21:15:13.902Z,101759.52
2023-05-19T21:17:40.670Z,101761.63
2023-05-19T21:20:08.648Z,101758.66
2023-05-19T21:22:35.915Z,101757.73
2023-05-19T21:25:02.979Z,101753.94
2023-05-19T21:27:32.095Z,101752.20
2023-05-19T21:29:58.944Z,101753.30
2023-05-19T21:32:25.775Z,101756.34
2023-05-19T21:34:52.926Z,101757.80
2023-05-19T21:37:21.068Z,101760.50
2023-05-19T21:39:48.835Z,101766.88
2023-05-19T21:42:15.646Z,101771.23
2023-05-19T21:44:42.834Z,101770.07
2023-05-19T21:47:09.679Z,101767.64
2023-05-19T21:49:36.168Z,101769.91
2023-05-19T21:52:02.947Z,101768.94
2023-05-19T21:54:30.071Z,101772.38
2023-05-19T21:56:56.663Z,101770.89
2023-05-19T21:59:24.890Z,101776.90
2023-05-19T22:01:51.875Z,101777.54
2023-05-19T22:04:18.967Z,101779.43
2023-05-19T22:06:46.313Z,101779.09
2023-05-19T22:09:13.286Z,101780.59
2023-05-19T22:11:40.425Z,101777.36
2023-05-19T22:14:07.349Z,101779.53
2023-05-19T22:16:34.206Z,101778.35
2023-05-19T22:19:01.346Z,101777.11
2023-05-19T22:21:28.428Z,101778.11
2023-05-19T22:23:55.339Z,101777.44
2023-05-19T22:26:22.235Z,101782.70
2023-05-19T22:28:49.430Z,101778.04
2023-05-19T22:31:16.688Z,101775.98
2023-05-19T22:33:43.216Z,101772.42
2023-05-19T22:36:10.994Z,101775.20
2023-05-19T22:38:37.687Z,101776.85
2023-05-19T22:41:05.054Z,101774.82
2023-05-19T22:43:31.840Z,101776.88
2023-05-19T22:45:58.921Z,101777.93
2023-05-19T22:48:25.706Z,101781.14
2023-05-19T22:50:52.674Z,101781.45
2023-05-19T22:53:19.534Z,101783.95
2023-05-19T22:55:46.828Z,101787.89
2023-05-19T22:58:13.485Z,101783.90
2023-05-19T23:00:40.455Z,101789.75
2023-05-19T23:03:07.219Z,101793.95
2023-05-19T23:05:34.838Z,101797.93
2023-05-19T23:08:01.672Z,101803.35
2023-05-19T23:10:28.342Z,101795.86
2023-05-19T23:12:55.194Z,101794.27
2023-05-19T23:15:22.023Z,101798.64
2023-05-19T23:17:48.675Z,101797.25
2023-05-19T23:20:15.597Z,101795.66
2023-05-19T23:22:42.423Z,101799.41
2023-05-19T23:25:09.249Z,101799.41
2023-05-19T23:27:36.429Z,101802.40
2023-05-19T23:30:03.845Z,101805.52
2023-05-19T23:32:30.938Z,101808.02
2023-05-19T23:34:57.642Z,101806.61
2023-05-19T23:37:24.782Z,101808.35
2023-05-19T23:39:51.505Z,101809.87
2023-05-19T23:42:18.620Z,101808.19
2023-05-19T23:44:45.618Z,101810.96
2023-05-19T23:47:12.302Z,101811.17
2023-05-19T23:49:39.013Z,101806.74
2023-05-19T23:52:06.336Z,101807.67
2023-05-19T23:54:33.115Z,101806.62
2023-05-19T23:57:02.132Z,101808.59
2023-05-19T23:59:29.173Z,101805.22
